Date,TemperatureHighF,TemperatureAvgF,TemperatureLowF,DewpointHighF,DewpointAvgF,DewpointLowF,HumidityHigh,HumidityAvg,HumidityLow,PressureMaxIn,PressureMinIn,WindSpeedMaxMPH,WindSpeedAvgMPH,GustSpeedMaxMPH,PrecipitationSumIn
2013-1-1,36,16,5,19,6,-3,76,65,44,30.62,30.22,3,0,4,0.00
2013-1-2,36,22,12,14,5,-2,71,50,28,30.67,30.28,6,1,13,0.01
2013-1-3,35,13,2,7,0,-7,67,56,28,30.84,30.36,2,0,3,5.68
2013-1-4,53,22,6,19,7,-2,75,56,25,30.69,30.00,2,0,4,0.01
2013-1-5,48,24,11,20,9,2,71,52,27,30.72,30.26,4,0,6,0.00
2013-1-6,51,22,3,17,7,-4,75,54,23,30.76,29.97,2,0,4,0.00
2013-1-7,58,32,22,24,16,13,72,55,22,30.30,29.80,2,0,4,0.00
2013-1-8,26,24,22,18,16,15,74,71,68,30.14,30.03,2,0,4,0.00
2013-1-9,58,39,22,29,22,14,71,52,28,30.35,30.06,3,0,4,0.02
2013-1-10,39,27,16,26,18,9,80,68,54,30.32,29.68,2,0,2,0.00
2013-1-11,37,22,5,28,14,-2,85,72,60,30.32,29.43,4,0,8,0.01
2013-1-12,18,7,-3,7,-2,-11,76,64,56,30.57,30.28,3,0,8,0.00
2013-1-13,19,6,-4,3,-5,-12,70,60,43,30.70,30.40,3,0,4,0.00
2013-1-14,23,6,-3,2,-7,-11,64,55,35,30.76,30.33,4,0,6,0.00
2013-1-15,34,16,-4,17,1,-13,66,52,29,30.72,30.23,2,0,4,0.00
2013-1-16,60,38,23,26,20,14,68,50,23,30.69,30.05,4,0,8,0.00
2013-1-17,56,29,14,25,16,8,76,60,26,30.86,30.24,2,0,5,0.00
2013-1-18,66,37,14,24,13,3,77,44,17,30.57,29.89,4,0,8,0.01
2013-1-19,63,40,23,22,12,3,60,34,20,30.49,30.03,3,0,7,0.00
2013-1-20,51,30,17,20,12,7,67,49,24,30.63,30.18,4,0,8,0.00
2013-1-21,60,31,12,23,13,6,77,52,21,30.64,29.94,3,0,6,0.00
2013-1-22,63,36,19,23,15,9,73,47,20,30.46,29.94,2,0,4,0.00
2013-1-23,61,37,20,22,14,10,66,41,21,30.53,29.99,3,0,4,0.00
2013-1-24,67,40,21,27,19,-100,70,46,18,30.39,29.79,7,0,6,5.70
2013-1-25,61,38,24,34,24,18,84,61,28,30.48,29.95,2,0,4,0.00
2013-1-26,52,37,23,34,26,18,85,66,43,30.31,29.86,3,0,4,0.00
2013-1-27,57,39,28,36,29,22,84,69,46,29.96,29.63,2,0,4,0.01
2013-1-28,52,33,24,33,23,18,84,69,45,29.99,29.50,7,1,14,0.00
2013-1-29,38,26,17,23,14,2,85,63,24,30.29,29.79,5,1,14,0.06
2013-1-30,43,27,8,20,12,0,74,54,30,30.35,29.85,7,1,14,0.00
2013-1-31,48,31,21,28,20,13,80,63,40,30.45,30.05,5,1,11,0.00
2013-2-1,52,31,17,30,19,11,84,63,25,30.45,29.98,8,1,15,0.01
2013-2-4,62,36,20,22,12,-100,66,40,21,30.31,29.70,7,0,9,5.76
2013-2-5,62,39,19,25,18,11,73,46,22,30.36,29.80,3,0,8,0.00
2013-2-6,54,40,29,31,23,18,70,52,29,30.28,29.76,8,1,14,0.00
2013-2-7,55,34,18,28,16,8,82,52,24,30.52,30.03,4,0,9,0.00
2013-2-8,58,31,15,21,12,6,71,49,21,30.35,29.67,2,0,4,0.00
2013-2-9,46,32,23,28,19,9,84,60,42,29.98,29.61,4,1,8,0.00
2013-2-10,38,31,20,19,12,4,65,46,26,30.39,29.77,6,2,11,0.00
2013-2-11,33,23,12,20,11,2,80,62,47,30.46,30.15,2,0,4,0.00
2013-2-12,53,27,7,15,6,-2,73,44,22,30.53,29.93,2,0,5,0.01
2013-2-13,56,32,14,20,11,4,67,45,21,30.34,29.83,5,1,11,0.00
2013-2-14,34,28,23,22,17,9,80,64,43,30.58,30.26,5,1,10,0.00
2013-2-15,44,30,18,24,14,2,85,57,24,30.65,30.32,8,1,16,0.03
2013-2-16,65,35,15,24,14,4,79,47,19,30.57,29.88,6,1,11,0.00
2013-2-17,68,40,22,23,14,6,59,38,16,30.23,29.36,8,2,16,0.00
2013-2-18,47,34,19,20,10,1,63,39,22,30.43,29.96,7,2,12,0.00
2013-2-19,46,27,14,19,10,2,65,50,25,30.49,29.92,3,0,5,0.00
2013-2-20,44,26,18,24,16,9,80,67,36,30.14,29.70,5,1,9,0.00
2013-2-21,36,23,15,21,15,8,83,71,53,30.44,29.90,4,0,7,5.90
2013-2-22,41,23,11,25,15,6,85,70,50,30.34,29.99,3,0,5,0.07
2013-2-23,48,27,10,26,16,2,86,64,37,30.21,29.64,2,0,4,0.00
2013-2-24,30,27,12,27,22,6,90,81,68,30.50,29.94,5,1,10,0.00
2013-2-25,42,20,2,23,10,-5,77,64,44,30.63,30.01,3,0,4,0.11
2013-2-26,40,28,12,24,17,6,80,63,43,30.37,29.93,8,2,17,6.08
2013-2-27,46,30,17,20,11,4,65,47,26,30.60,30.24,4,1,8,0.00
2013-2-28,50,30,10,21,12,2,74,50,23,30.68,30.17,4,1,8,0.00
2013-3-1,48,35,24,27,20,12,76,55,35,30.56,30.31,3,1,6,0.00
2013-3-2,64,42,23,32,26,17,82,57,24,30.61,30.03,2,0,4,0.00
2013-3-3,68,47,32,36,28,22,78,53,21,30.19,29.47,5,1,11,0.00
2013-3-4,49,31,21,29,17,4,82,57,32,30.54,29.67,8,1,11,0.04
2013-3-5,46,28,12,23,14,3,74,56,27,30.72,30.24,4,1,8,0.01
2013-3-6,59,36,17,32,22,10,77,58,26,30.50,29.78,2,0,4,0.00
2013-3-7,69,46,28,36,26,20,76,51,21,30.15,29.70,7,1,13,0.00
2013-3-8,53,38,29,35,29,23,81,69,48,30.21,29.73,4,0,5,6.12
2013-3-9,39,34,28,32,24,15,92,67,46,30.33,29.81,9,2,14,0.11
2013-3-10,53,39,28,22,16,8,73,41,22,30.33,30.01,9,3,16,0.01
2013-3-11,61,40,28,30,23,14,90,56,22,30.39,29.78,8,1,13,0.00
2013-3-12,41,32,25,30,25,20,92,76,58,30.58,30.35,3,0,8,0.17
2013-3-13,67,44,24,38,29,21,89,61,28,30.53,30.03,4,0,5,0.00
2013-3-14,75,53,34,40,31,26,83,50,18,30.47,29.94,3,0,7,0.00
2013-3-15,80,59,40,35,28,22,74,38,15,30.17,29.60,7,2,13,0.00
2013-3-16,60,49,36,35,32,28,76,53,34,30.16,29.75,4,1,8,0.00
2013-3-17,64,41,27,36,23,1,85,54,22,30.02,29.40,8,1,13,0.00
2013-3-18,54,41,25,20,9,-5,46,27,21,30.15,29.78,8,2,14,0.00
2013-3-19,59,45,25,21,12,1,59,28,21,30.48,29.97,8,2,14,0.00
2013-3-20,42,38,35,21,19,17,52,47,41,29.93,29.88,1,0,2,0.00
2013-3-21,56,46,36,35,19,6,66,36,21,29.97,29.52,7,3,14,0.00
2013-3-22,47,33,24,29,18,3,90,56,27,30.19,29.79,4,1,8,0.01
2013-3-23,29,22,10,22,14,2,85,74,54,30.63,30.19,0,0,0,0.00
2013-3-24,38,20,4,19,8,-3,78,60,35,30.66,30.23,6,1,11,0.17
2013-3-25,41,26,14,20,12,7,76,58,37,30.65,30.29,4,1,8,0.00
2013-3-26,50,32,13,32,18,7,77,60,32,30.58,29.95,2,0,4,6.60
2013-3-27,60,44,30,38,32,26,89,68,35,30.28,29.94,4,1,6,0.00
2013-3-28,72,47,27,37,30,23,90,58,18,30.34,29.83,5,1,8,0.00
2013-3-29,74,52,34,39,31,25,83,50,17,30.31,29.83,5,1,10,0.00
2013-3-30,71,47,32,42,33,25,95,65,18,30.40,29.82,7,1,13,0.08
2013-3-31,75,49,26,43,30,21,97,58,15,30.41,29.69,3,1,5,0.01
2013-4-1,58,43,29,35,29,21,75,59,39,30.41,29.96,4,1,10,0.00
2013-4-2,44,40,36,38,34,29,95,80,68,30.28,30.15,3,0,6,0.01
2013-4-3,68,49,36,43,36,29,97,65,33,30.30,29.86,4,1,8,0.00
2013-4-4,77,56,33,40,33,26,85,46,18,30.36,29.76,4,1,8,0.00
2013-4-5,74,55,43,40,33,23,68,48,16,30.01,29.46,8,1,14,0.00
2013-4-6,70,57,43,31,25,20,50,31,18,30.02,29.67,5,1,13,0.00
2013-4-7,70,53,37,42,35,26,94,56,22,29.98,29.49,5,1,10,0.03
2013-4-8,74,45,26,40,31,18,87,62,23,30.12,29.22,8,2,18,0.00
2013-4-9,27,21,14,21,10,2,79,62,50,30.59,30.11,8,3,14,0.02
2013-4-10,35,22,9,22,11,-2,78,64,47,30.59,30.18,7,1,10,0.01
2013-4-11,62,38,17,35,24,10,81,60,27,30.25,29.64,6,1,11,0.00
2013-4-12,61,44,30,37,31,26,90,64,35,30.12,29.78,4,1,12,0.00
2013-4-13,66,47,29,40,32,23,92,62,21,30.09,29.29,7,1,12,0.07
2013-4-14,51,44,36,38,13,7,84,29,21,29.87,29.55,11,4,21,0.02
2013-4-15,37,29,24,26,22,12,89,77,35,30.32,29.84,6,0,10,0.02
2013-4-16,34,28,24,29,25,21,94,86,78,30.32,30.03,4,0,8,0.01
2013-4-17,33,28,22,30,24,13,95,84,69,30.48,30.15,1,0,2,0.04
2013-4-18,45,28,11,22,12,4,80,54,26,30.55,30.14,5,1,11,0.21
2013-4-19,58,38,19,30,22,12,78,54,25,30.43,29.89,3,0,6,0.00
2013-4-20,62,46,31,37,32,26,85,61,30,30.14,29.80,3,0,4,0.00
2013-4-21,68,49,20,42,32,13,95,59,24,30.35,29.83,4,0,7,7.13
2013-4-22,46,34,24,40,29,21,96,83,63,30.62,29.99,7,1,14,0.01
2013-4-23,39,29,19,24,19,14,87,66,45,30.61,30.26,4,0,5,0.14
2013-4-24,62,41,22,30,22,11,80,52,22,30.46,30.00,3,0,5,0.00
2013-4-25,71,47,26,30,25,20,85,48,18,30.39,29.71,4,0,7,0.00
2013-4-26,76,55,33,72,26,21,97,40,15,30.31,29.92,5,1,8,0.00
2013-4-27,82,60,34,36,27,21,80,36,14,30.36,29.72,4,1,10,0.00
2013-4-28,85,64,40,38,31,25,69,35,14,30.12,29.53,5,1,11,0.00
2013-4-29,86,68,50,43,34,22,65,33,14,29.87,29.30,5,1,10,0.00
2013-4-30,61,49,33,43,36,27,97,63,28,30.24,29.52,8,1,15,0.44
2013-5-1,36,31,24,33,28,20,99,88,74,30.94,30.24,0,0,1,0.28
2013-5-2,50,35,16,30,21,12,86,60,29,31.08,30.53,2,0,4,0.20
2013-5-3,66,46,25,36,28,20,86,54,25,30.66,29.95,2,0,5,0.00
2013-5-4,66,50,38,37,32,27,88,53,25,30.34,29.98,4,1,6,0.00
2013-5-5,66,49,32,33,28,23,71,45,24,30.44,29.97,3,1,7,0.00
2013-5-6,72,55,36,41,33,29,83,48,21,30.23,29.73,5,1,8,0.00
2013-5-7,76,57,39,47,42,36,90,60,26,30.07,29.66,4,1,11,0.03
2013-5-8,75,54,43,49,45,40,96,75,32,30.14,29.74,4,1,7,0.49
2013-5-9,64,52,43,50,44,32,97,76,50,30.30,30.04,4,1,6,0.23
2013-5-10,78,57,38,47,40,30,99,60,21,30.36,29.93,4,1,8,0.00
2013-5-11,75,58,43,49,43,38,88,61,31,30.52,30.05,7,1,8,8.95
2013-5-12,86,66,44,47,40,31,92,47,16,30.30,29.78,4,1,10,0.00
2013-5-13,94,71,48,49,42,36,81,43,14,30.18,29.67,5,1,9,0.00
2013-5-14,90,70,50,51,44,37,79,44,16,30.03,29.54,7,1,14,0.00
2013-5-15,88,67,50,56,46,37,84,54,21,29.95,29.55,6,1,10,0.04
2013-5-16,87,68,51,56,47,35,94,55,20,29.93,29.44,4,1,6,0.00
2013-5-17,93,72,50,56,44,29,84,44,14,29.89,29.35,5,1,8,0.00
2013-5-18,84,65,50,46,37,30,69,39,16,29.89,29.44,5,1,12,0.00
2013-5-19,76,62,52,41,35,28,58,38,19,29.82,29.50,7,1,11,0.00
2013-5-20,68,57,48,49,42,35,94,60,38,30.01,29.73,7,2,17,0.07
2013-5-21,76,59,39,38,34,28,83,44,19,30.16,29.63,4,1,11,0.00
2013-5-22,82,60,40,47,40,35,86,53,22,30.09,29.58,5,1,9,0.00
2013-5-23,74,58,49,55,48,46,89,74,46,30.16,29.78,6,2,12,0.00
2013-5-24,91,67,39,55,48,34,99,60,14,30.16,29.52,4,0,8,0.00
2013-5-25,92,71,50,60,49,38,96,54,16,30.02,29.48,4,1,7,0.00
2013-5-26,90,70,54,49,42,33,71,41,14,29.88,29.51,5,1,11,0.00
2013-5-27,88,68,46,48,38,28,77,39,14,29.92,29.42,4,1,9,0.00
2013-5-28,87,66,50,50,43,-100,70,48,17,29.84,29.23,7,1,13,0.00
2013-5-29,70,57,48,53,47,35,99,70,44,29.74,29.41,2,0,4,0.65
2013-5-30,76,65,45,39,30,22,79,32,15,29.81,29.43,7,2,16,0.00
2013-5-31,78,63,42,63,28,20,97,29,15,30.00,29.61,7,2,11,9.70
2013-6-1,80,62,47,41,37,31,71,41,21,30.28,29.87,5,1,11,0.00
2013-6-2,86,64,40,45,41,37,93,50,20,30.30,29.52,3,1,8,0.00
2013-6-3,94,71,45,71,40,23,97,40,14,29.86,29.34,6,1,10,0.00
2013-6-4,80,64,52,52,46,23,75,54,22,30.19,29.72,4,1,7,0.03
2013-6-5,67,56,49,49,45,41,88,67,50,30.28,29.97,4,1,6,0.00
2013-6-6,87,65,42,52,44,38,99,57,21,30.21,29.69,3,0,5,0.00
2013-6-7,88,70,51,52,46,40,83,47,23,30.12,29.53,4,1,8,0.00
2013-6-8,81,67,53,52,46,39,85,51,24,30.01,29.60,6,1,18,0.00
2013-6-9,93,71,46,52,46,39,94,49,16,30.12,29.53,4,1,7,0.00
2013-6-10,99,75,52,56,47,34,82,45,11,29.92,29.41,4,1,11,0.00
2013-6-11,102,79,54,55,43,29,76,35,11,29.88,29.32,8,1,17,0.00
2013-6-12,95,76,54,56,42,27,67,32,14,30.11,29.62,5,1,8,0.00
2013-6-13,86,69,56,62,55,49,86,64,44,30.11,29.59,4,0,8,0.00
2013-6-14,97,76,57,56,48,36,81,45,13,29.92,29.48,5,1,11,0.00
2013-6-15,85,70,52,58,51,45,93,53,31,30.09,29.70,4,1,7,0.38
2013-6-16,84,68,55,64,52,39,99,62,23,30.08,29.74,4,1,8,0.00
2013-6-17,83,67,51,59,53,45,96,64,31,30.16,29.74,3,0,8,0.00
2013-6-18,87,70,56,58,53,44,83,57,27,30.12,29.56,4,1,8,0.03
2013-6-19,98,74,51,58,50,36,98,54,12,29.98,29.25,5,1,9,0.00
2013-6-20,92,76,61,56,43,29,81,36,13,29.81,29.47,5,1,8,0.00
2013-6-21,100,77,58,62,51,35,81,48,11,29.86,29.36,4,1,8,0.00